sensor_id;sensor_type;location;lat;lon;timestamp;pressure;altitude;pressure_sealevel;temperature;humidity
25084;BME280;13075;55.682;37.564;2022-10-16T00:01:47;100743.88;;;7.43;100.00
25084;BME280;13075;55.682;37.564;2022-10-16T00:04:12;100750.22;;;7.42;100.00
25084;BME280;13075;55.682;37.564;2022-10-16T00:06:39;100742.50;;;7.39;100.00
25084;BME280;13075;55.682;37.564;2022-10-16T00:09:05;100756.28;;;7.35;100.00
25084;BME280;13075;55.682;37.564;2022-10-16T00:11:33;100751.81;;;7.35;100.00
25084;BME280;13075;55.682;37.564;2022-10-16T00:14:03;100756.41;;;7.33;100.00
25084;BME280;13075;55.682;37.564;2022-10-16T00:16:29;100764.56;;;7.32;100.00
25084;BME280;13075;55.682;37.564;2022-10-16T00:18:56;100763.72;;;7.31;100.00
25084;BME280;13075;55.682;37.564;2022-10-16T00:21:27;100762.59;;;7.34;100.00
25084;BME280;13075;55.682;37.564;2022-10-16T00:23:58;100769.03;;;7.31;100.00
25084;BME280;13075;55.682;37.564;2022-10-16T00:26:25;100764.00;;;7.28;100.00
25084;BME280;13075;55.682;37.564;2022-10-16T00:28:52;100767.34;;;7.30;100.00
25084;BME280;13075;55.682;37.564;2022-10-16T00:31:20;100765.53;;;7.31;100.00
25084;BME280;13075;55.682;37.564;2022-10-16T00:33:46;100760.09;;;7.32;100.00
25084;BME280;13075;55.682;37.564;2022-10-16T00:36:14;100767.91;;;7.34;100.00
25084;BME280;13075;55.682;37.564;2022-10-16T00:38:41;100766.53;;;7.30;100.00
25084;BME280;13075;55.682;37.564;2022-10-16T00:41:09;100773.81;;;7.28;100.00
25084;BME280;13075;55.682;37.564;2022-10-16T00:46:40;100768.38;;;7.29;100.00
25084;BME280;13075;55.682;37.564;2022-10-16T00:51:41;100766.16;;;7.25;100.00
25084;BME280;13075;55.682;37.564;2022-10-16T00:54:15;100775.66;;;7.27;100.00
25084;BME280;13075;55.682;37.564;2022-10-16T00:56:43;100770.34;;;7.27;100.00
25084;BME280;13075;55.682;37.564;2022-10-16T00:59:19;100776.09;;;7.23;100.00
25084;BME280;13075;55.682;37.564;2022-10-16T01:01:46;100781.88;;;7.18;100.00
25084;BME280;13075;55.682;37.564;2022-10-16T01:04:11;100780.03;;;7.19;100.00
25084;BME280;13075;55.682;37.564;2022-10-16T01:12:15;100780.50;;;7.14;100.00
25084;BME280;13075;55.682;37.564;2022-10-16T01:17:13;100784.00;;;7.15;100.00
25084;BME280;13075;55.682;37.564;2022-10-16T01:22:50;100786.09;;;7.11;100.00
25084;BME280;13075;55.682;37.564;2022-10-16T01:25:39;100780.53;;;7.05;100.00
25084;BME280;13075;55.682;37.564;2022-10-16T01:28:14;100789.75;;;7.10;100.00
25084;BME280;13075;55.682;37.564;2022-10-16T01:30:43;100787.06;;;7.10;100.00
25084;BME280;13075;55.682;37.564;2022-10-16T01:35:46;100788.78;;;7.11;100.00
25084;BME280;13075;55.682;37.564;2022-10-16T01:38:31;100797.59;;;7.12;100.00
25084;BME280;13075;55.682;37.564;2022-10-16T01:41:13;100793.13;;;7.12;100.00
25084;BME280;13075;55.682;37.564;2022-10-16T01:43:48;100795.22;;;7.09;100.00
25084;BME280;13075;55.682;37.564;2022-10-16T01:46:18;100799.31;;;7.03;100.00
25084;BME280;13075;55.682;37.564;2022-10-16T01:48:44;100797.31;;;7.05;100.00
25084;BME280;13075;55.682;37.564;2022-10-16T01:51:12;100807.84;;;7.07;100.00
25084;BME280;13075;55.682;37.564;2022-10-16T01:53:44;100806.16;;;7.06;100.00
25084;BME280;13075;55.682;37.564;2022-10-16T01:56:12;100799.88;;;7.07;100.00
25084;BME280;13075;55.682;37.564;2022-10-16T01:58:49;100804.91;;;7.00;100.00
25084;BME280;13075;55.682;37.564;2022-10-16T02:01:19;100809.09;;;7.03;100.00
25084;BME280;13075;55.682;37.564;2022-10-16T02:03:51;100811.94;;;7.01;100.00
25084;BME280;13075;55.682;37.564;2022-10-16T02:06:18;100809.38;;;7.00;100.00
25084;BME280;13075;55.682;37.564;2022-10-16T02:08:44;100812.91;;;7.00;100.00
25084;BME280;13075;55.682;37.564;2022-10-16T02:11:10;100809.38;;;7.00;100.00
25084;BME280;13075;55.682;37.564;2022-10-16T02:13:48;100805.34;;;6.96;100.00
25084;BME280;13075;55.682;37.564;2022-10-16T02:16:16;100809.03;;;6.85;100.00
25084;BME280;13075;55.682;37.564;2022-10-16T02:18:43;100810.44;;;6.89;100.00
25084;BME280;13075;55.682;37.564;2022-10-16T02:21:33;100806.09;;;6.88;100.00
25084;BME280;13075;55.682;37.564;2022-10-16T02:29:37;100816.59;;;6.80;100.00
25084;BME280;13075;55.682;37.564;2022-10-16T02:32:05;100813.38;;;6.76;100.00
25084;BME280;13075;55.682;37.564;2022-10-16T02:34:33;100818.19;;;6.73;100.00
25084;BME280;13075;55.682;37.564;2022-10-16T02:37:01;100815.38;;;6.74;100.00
25084;BME280;13075;55.682;37.564;2022-10-16T02:39:28;100817.91;;;6.76;100.00
25084;BME280;13075;55.682;37.564;2022-10-16T02:41:54;100819.56;;;6.77;100.00
25084;BME280;13075;55.682;37.564;2022-10-16T02:44:20;100818.59;;;6.78;100.00
25084;BME280;13075;55.682;37.564;2022-10-16T02:46:46;100819.72;;;6.75;100.00
25084;BME280;13075;55.682;37.564;2022-10-16T02:49:11;100819.16;;;6.72;100.00
25084;BME280;13075;55.682;37.564;2022-10-16T02:51:37;100821.38;;;6.76;100.00
25084;BME280;13075;55.682;37.564;2022-10-16T02:54:03;100825.03;;;6.75;100.00
25084;BME280;13075;55.682;37.564;2022-10-16T02:56:29;100822.25;;;6.67;100.00
25084;BME280;13075;55.682;37.564;2022-10-16T02:58:55;100820.84;;;6.73;100.00
25084;BME280;13075;55.682;37.564;2022-10-16T03:01:21;100822.38;;;6.75;100.00
25084;BME280;13075;55.682;37.564;2022-10-16T03:03:46;100821.97;;;6.70;100.00
25084;BME280;13075;55.682;37.564;2022-10-16T03:06:12;100834.41;;;6.70;100.00
25084;BME280;13075;55.682;37.564;2022-10-16T03:08:38;100835.94;;;6.72;100.00
25084;BME280;13075;55.682;37.564;2022-10-16T03:11:04;100831.34;;;6.65;100.00
25084;BME280;13075;55.682;37.564;2022-10-16T03:13:30;100840.00;;;6.67;100.00
25084;BME280;13075;55.682;37.564;2022-10-16T03:15:55;100839.91;;;6.68;100.00
25084;BME280;13075;55.682;37.564;2022-10-16T03:18:21;100836.38;;;6.68;100.00
25084;BME280;13075;55.682;37.564;2022-10-16T03:20:47;100837.63;;;6.64;100.00
25084;BME280;13075;55.682;37.564;2022-10-16T03:23:13;100842.13;;;6.54;100.00
25084;BME280;13075;55.682;37.564;2022-10-16T03:25:39;100837.09;;;6.51;100.00
25084;BME280;13075;55.682;37.564;2022-10-16T03:28:04;100839.06;;;6.49;100.00
25084;BME280;13075;55.682;37.564;2022-10-16T03:30:30;100849.16;;;6.45;100.00
25084;BME280;13075;55.682;37.564;2022-10-16T03:32:56;100844.38;;;6.49;100.00
25084;BME280;13075;55.682;37.564;2022-10-16T03:35:22;100851.94;;;6.44;100.00
25084;BME280;13075;55.682;37.564;2022-10-16T03:37:49;100852.50;;;6.47;100.00
25084;BME280;13075;55.682;37.564;2022-10-16T03:40:15;100853.22;;;6.49;100.00
25084;BME280;13075;55.682;37.564;2022-10-16T03:42:44;100847.72;;;6.51;100.00
25084;BME280;13075;55.682;37.564;2022-10-16T03:45:11;100850.97;;;6.45;100.00
25084;BME280;13075;55.682;37.564;2022-10-16T03:47:36;100855.03;;;6.39;100.00
25084;BME280;13075;55.682;37.564;2022-10-16T03:50:03;100850.69;;;6.28;100.00
25084;BME280;13075;55.682;37.564;2022-10-16T03:52:29;100851.81;;;6.36;100.00
25084;BME280;13075;55.682;37.564;2022-10-16T03:54:55;100850.84;;;6.37;100.00
25084;BME280;13075;55.682;37.564;2022-10-16T03:57:21;100849.84;;;6.38;100.00
25084;BME280;13075;55.682;37.564;2022-10-16T03:59:47;100845.13;;;6.32;100.00
25084;BME280;13075;55.682;37.564;2022-10-16T04:02:12;100854.47;;;6.26;100.00
25084;BME280;13075;55.682;37.564;2022-10-16T04:04:38;100855.59;;;6.23;100.00
25084;BME280;13075;55.682;37.564;2022-10-16T04:07:04;100856.56;;;6.22;100.00
25084;BME280;13075;55.682;37.564;2022-10-16T04:09:30;100854.31;;;6.27;100.00
25084;BME280;13075;55.682;37.564;2022-10-16T04:11:55;100852.25;;;6.31;100.00
25084;BME280;13075;55.682;37.564;2022-10-16T04:14:21;100853.22;;;6.30;100.00
25084;BME280;13075;55.682;37.564;2022-10-16T04:16:47;100855.75;;;6.32;100.00
25084;BME280;13075;55.682;37.564;2022-10-16T04:19:12;100850.84;;;6.27;100.00
25084;BME280;13075;55.682;37.564;2022-10-16T04:21:38;100851.97;;;6.34;100.00
25084;BME280;13075;55.682;37.564;2022-10-16T04:24:04;100855.31;;;6.36;100.00
25084;BME280;13075;55.682;37.564;2022-10-16T04:26:29;100860.63;;;6.36;100.00
25084;BME280;13075;55.682;37.564;2022-10-16T04:28:55;100853.34;;;6.38;100.00
25084;BME280;13075;55.682;37.564;2022-10-16T04:31:21;100859.38;;;6.31;100.00
25084;BME280;13075;55.682;37.564;2022-10-16T04:33:47;100860.06;;;6.42;100.00
25084;BME280;13075;55.682;37.564;2022-10-16T04:36:13;100865.38;;;6.33;100.00
25084;BME280;13075;55.682;37.564;2022-10-16T04:38:39;100865.25;;;6.34;100.00
25084;BME280;13075;55.682;37.564;2022-10-16T04:41:08;100871.53;;;6.33;100.00
25084;BME280;13075;55.682;37.564;2022-10-16T04:43:33;100872.66;;;6.40;100.00
25084;BME280;13075;55.682;37.564;2022-10-16T04:45:59;100874.34;;;6.41;100.00
25084;BME280;13075;55.682;37.564;2022-10-16T04:48:25;100871.69;;;6.41;100.00
25084;BME280;13075;55.682;37.564;2022-10-16T04:50:51;100876.16;;;6.31;100.00
25084;BME280;13075;55.682;37.564;2022-10-16T04:53:16;100872.94;;;6.37;100.00
25084;BME280;13075;55.682;37.564;2022-10-16T04:55:42;100872.66;;;6.50;100.00
25084;BME280;13075;55.682;37.564;2022-10-16T04:58:08;100874.72;;;6.56;100.00
25084;BME280;13075;55.682;37.564;2022-10-16T05:00:34;100876.16;;;6.50;100.00
25084;BME280;13075;55.682;37.564;2022-10-16T05:03:00;100880.78;;;6.58;100.00
25084;BME280;13075;55.682;37.564;2022-10-16T05:05:27;100886.09;;;6.58;100.00
25084;BME280;13075;55.682;37.564;2022-10-16T05:07:53;100875.31;;;6.59;100.00
25084;BME280;13075;55.682;37.564;2022-10-16T05:10:19;100881.91;;;6.55;100.00
25084;BME280;13075;55.682;37.564;2022-10-16T05:12:45;100877.53;;;6.54;100.00
25084;BME280;13075;55.682;37.564;2022-10-16T05:15:11;100877.69;;;6.62;100.00
25084;BME280;13075;55.682;37.564;2022-10-16T05:17:37;100873.63;;;6.68;100.00
25084;BME280;13075;55.682;37.564;2022-10-16T05:20:03;100872.91;;;6.75;100.00
25084;BME280;13075;55.682;37.564;2022-10-16T05:22:29;100876.19;;;7.06;100.00
25084;BME280;13075;55.682;37.564;2022-10-16T05:24:55;100880.16;;;7.57;100.00
25084;BME280;13075;55.682;37.564;2022-10-16T05:27:20;100874.28;;;8.86;100.00
25084;BME280;13075;55.682;37.564;2022-10-16T05:29:46;100876.31;;;8.66;100.00
25084;BME280;13075;55.682;37.564;2022-10-16T05:32:16;100881.66;;;8.31;100.00
25084;BME280;13075;55.682;37.564;2022-10-16T05:34:43;100877.47;;;8.29;100.00
25084;BME280;13075;55.682;37.564;2022-10-16T05:37:09;100878.56;;;7.91;100.00
25084;BME280;13075;55.682;37.564;2022-10-16T05:39:34;100875.69;;;7.84;100.00
25084;BME280;13075;55.682;37.564;2022-10-16T05:42:02;100878.94;;;7.78;100.00
25084;BME280;13075;55.682;37.564;2022-10-16T05:44:28;100874.75;;;7.76;100.00
25084;BME280;13075;55.682;37.564;2022-10-16T05:46:53;100879.81;;;7.96;100.00
25084;BME280;13075;55.682;37.564;2022-10-16T05:49:19;100877.72;;;8.35;100.00
25084;BME280;13075;55.682;37.564;2022-10-16T05:51:44;100889.16;;;8.28;100.00
25084;BME280;13075;55.682;37.564;2022-10-16T05:54:10;100887.53;;;8.35;100.00
25084;BME280;13075;55.682;37.564;2022-10-16T05:56:36;100890.06;;;8.54;100.00
25084;BME280;13075;55.682;37.564;2022-10-16T05:59:03;100878.19;;;9.59;100.00
25084;BME280;13075;55.682;37.564;2022-10-16T06:01:29;100872.19;;;10.15;100.00
25084;BME280;13075;55.682;37.564;2022-10-16T06:03:56;100878.28;;;9.91;100.00
25084;BME280;13075;55.682;37.564;2022-10-16T06:06:24;100882.69;;;9.59;100.00
25084;BME280;13075;55.682;37.564;2022-10-16T06:08:51;100886.25;;;9.33;100.00
25084;BME280;13075;55.682;37.564;2022-10-16T06:11:24;100895.22;;;8.99;100.00
25084;BME280;13075;55.682;37.564;2022-10-16T06:13:51;100888.09;;;8.82;100.00
25084;BME280;13075;55.682;37.564;2022-10-16T06:16:17;100889.78;;;8.65;100.00
25084;BME280;13075;55.682;37.564;2022-10-16T06:18:43;100887.72;;;8.76;100.00
25084;BME280;13075;55.682;37.564;2022-10-16T06:21:10;100893.56;;;8.80;100.00
25084;BME280;13075;55.682;37.564;2022-10-16T06:23:36;100890.41;;;8.76;100.00
25084;BME280;13075;55.682;37.564;2022-10-16T06:26:10;100891.19;;;8.95;100.00
25084;BME280;13075;55.682;37.564;2022-10-16T06:28:37;100895.63;;;8.86;100.00
25084;BME280;13075;55.682;37.564;2022-10-16T06:31:04;100893.03;;;8.94;100.00
25084;BME280;13075;55.682;37.564;2022-10-16T06:33:31;100898.41;;;9.02;100.00
25084;BME280;13075;55.682;37.564;2022-10-16T06:36:03;100894.28;;;9.08;100.00
25084;BME280;13075;55.682;37.564;2022-10-16T06:38:30;100895.22;;;8.99;100.00
25084;BME280;13075;55.682;37.564;2022-10-16T06:40:56;100896.59;;;9.03;100.00
25084;BME280;13075;55.682;37.564;2022-10-16T06:43:22;100899.03;;;8.96;100.00
25084;BME280;13075;55.682;37.564;2022-10-16T06:45:55;100905.44;;;9.03;100.00
25084;BME280;13075;55.682;37.564;2022-10-16T06:48:21;100901.09;;;9.02;100.00
25084;BME280;13075;55.682;37.564;2022-10-16T06:51:09;100909.28;;;9.09;100.00
25084;BME280;13075;55.682;37.564;2022-10-16T06:53:37;100904.13;;;9.07;100.00
25084;BME280;13075;55.682;37.564;2022-10-16T06:56:08;100899.84;;;9.48;100.00
25084;BME280;13075;55.682;37.564;2022-10-16T06:58:33;100883.50;;;11.77;100.00
25084;BME280;13075;55.682;37.564;2022-10-16T07:00:59;100883.81;;;11.82;100.00
25084;BME280;13075;55.682;37.564;2022-10-16T07:03:25;100888.53;;;11.80;100.00
25084;BME280;13075;55.682;37.564;2022-10-16T07:05:50;100897.88;;;12.45;100.00
25084;BME280;13075;55.682;37.564;2022-10-16T07:08:16;100889.59;;;11.63;100.00
25084;BME280;13075;55.682;37.564;2022-10-16T07:10:41;100894.00;;;11.48;100.00
25084;BME280;13075;55.682;37.564;2022-10-16T07:13:07;100895.66;;;10.78;100.00
25084;BME280;13075;55.682;37.564;2022-10-16T07:15:33;100903.16;;;10.74;100.00
25084;BME280;13075;55.682;37.564;2022-10-16T07:17:58;100890.72;;;11.30;100.00
25084;BME280;13075;55.682;37.564;2022-10-16T07:20:24;100888.75;;;14.30;100.00
25084;BME280;13075;55.682;37.564;2022-10-16T07:22:50;100903.06;;;13.22;100.00
25084;BME280;13075;55.682;37.564;2022-10-16T07:25:35;100898.09;;;13.19;100.00
25084;BME280;13075;55.682;37.564;2022-10-16T07:28:00;100900.13;;;12.57;100.00
25084;BME280;13075;55.682;37.564;2022-10-16T07:30:26;100902.13;;;11.78;100.00
25084;BME280;13075;55.682;37.564;2022-10-16T07:32:51;100898.72;;;11.46;100.00
25084;BME280;13075;55.682;37.564;2022-10-16T07:35:17;100902.41;;;11.37;100.00
25084;BME280;13075;55.682;37.564;2022-10-16T07:37:46;100901.94;;;11.25;100.00
25084;BME280;13075;55.682;37.564;2022-10-16T07:40:12;100893.28;;;11.54;100.00
25084;BME280;13075;55.682;37.564;2022-10-16T07:42:38;100901.53;;;11.52;100.00
25084;BME280;13075;55.682;37.564;2022-10-16T07:45:04;100903.25;;;11.37;100.00
25084;BME280;13075;55.682;37.564;2022-10-16T07:47:30;100897.22;;;11.82;100.00
25084;BME280;13075;55.682;37.564;2022-10-16T07:49:55;100898.47;;;11.71;100.00
25084;BME280;13075;55.682;37.564;2022-10-16T07:52:21;100893.09;;;11.63;100.00
25084;BME280;13075;55.682;37.564;2022-10-16T07:54:47;100900.47;;;11.69;100.00
25084;BME280;13075;55.682;37.564;2022-10-16T07:57:12;100899.69;;;11.53;100.00
25084;BME280;13075;55.682;37.564;2022-10-16T07:59:44;100894.66;;;11.50;100.00
25084;BME280;13075;55.682;37.564;2022-10-16T08:02:10;100906.69;;;11.54;100.00
25084;BME280;13075;55.682;37.564;2022-10-16T08:04:36;100905.75;;;11.39;100.00
25084;BME280;13075;55.682;37.564;2022-10-16T08:07:01;100903.22;;;11.45;100.00
25084;BME280;13075;55.682;37.564;2022-10-16T08:09:27;100907.25;;;11.33;100.00
25084;BME280;13075;55.682;37.564;2022-10-16T08:11:52;100908.81;;;11.27;100.00
25084;BME280;13075;55.682;37.564;2022-10-16T08:14:18;100903.28;;;11.21;100.00
25084;BME280;13075;55.682;37.564;2022-10-16T08:16:43;100902.75;;;11.34;100.00
25084;BME280;13075;55.682;37.564;2022-10-16T08:19:09;100903.25;;;11.37;100.00
25084;BME280;13075;55.682;37.564;2022-10-16T08:21:34;100905.28;;;11.35;100.00
25084;BME280;13075;55.682;37.564;2022-10-16T08:24:00;100900.41;;;11.31;100.00
25084;BME280;13075;55.682;37.564;2022-10-16T08:26:26;100905.41;;;11.34;100.00
25084;BME280;13075;55.682;37.564;2022-10-16T08:28:53;100899.41;;;11.32;100.00
25084;BME280;13075;55.682;37.564;2022-10-16T08:31:18;100898.03;;;11.44;100.00
25084;BME280;13075;55.682;37.564;2022-10-16T08:33:44;100896.63;;;11.64;100.00
25084;BME280;13075;55.682;37.564;2022-10-16T08:36:12;100899.13;;;11.73;100.00
25084;BME280;13075;55.682;37.564;2022-10-16T08:38:38;100901.09;;;11.79;100.00
25084;BME280;13075;55.682;37.564;2022-10-16T08:47:03;100893.44;;;12.07;100.00
25084;BME280;13075;55.682;37.564;2022-10-16T08:49:32;100888.25;;;11.98;100.00
25084;BME280;13075;55.682;37.564;2022-10-16T08:51:58;100889.88;;;11.84;100.00
25084;BME280;13075;55.682;37.564;2022-10-16T08:54:34;100895.19;;;11.92;100.00
25084;BME280;13075;55.682;37.564;2022-10-16T08:57:16;100891.25;;;12.03;100.00
25084;BME280;13075;55.682;37.564;2022-10-16T08:59:42;100889.72;;;12.08;100.00
25084;BME280;13075;55.682;37.564;2022-10-16T09:02:34;100890.84;;;12.14;100.00
25084;BME280;13075;55.682;37.564;2022-10-16T09:07:43;100893.78;;;12.04;100.00
25084;BME280;13075;55.682;37.564;2022-10-16T09:13:07;100888.72;;;12.09;100.00
25084;BME280;13075;55.682;37.564;2022-10-16T09:15:40;100894.16;;;12.24;100.00
25084;BME280;13075;55.682;37.564;2022-10-16T09:18:17;100889.56;;;12.32;100.00
25084;BME280;13075;55.682;37.564;2022-10-16T09:23:35;100886.09;;;12.46;100.00
25084;BME280;13075;55.682;37.564;2022-10-16T09:26:02;100880.06;;;12.44;100.00
25084;BME280;13075;55.682;37.564;2022-10-16T09:28:28;100886.19;;;12.38;100.00
25084;BME280;13075;55.682;37.564;2022-10-16T09:30:54;100892.19;;;12.40;100.00
25084;BME280;13075;55.682;37.564;2022-10-16T09:33:34;100875.75;;;12.43;100.00
25084;BME280;13075;55.682;37.564;2022-10-16T09:36:03;100892.34;;;12.39;100.00
25084;BME280;13075;55.682;37.564;2022-10-16T09:38:33;100880.28;;;12.43;100.00
25084;BME280;13075;55.682;37.564;2022-10-16T09:43:46;100877.34;;;12.52;100.00
25084;BME280;13075;55.682;37.564;2022-10-16T09:49:25;100882.84;;;12.59;100.00
25084;BME280;13075;55.682;37.564;2022-10-16T09:52:02;100883.59;;;12.68;100.00
25084;BME280;13075;55.682;37.564;2022-10-16T09:54:28;100878.41;;;12.66;100.00
25084;BME280;13075;55.682;37.564;2022-10-16T09:57:04;100874.28;;;12.56;100.00
25084;BME280;13075;55.682;37.564;2022-10-16T09:59:31;100868.72;;;12.57;100.00
25084;BME280;13075;55.682;37.564;2022-10-16T10:02:01;100868.03;;;12.63;100.00
25084;BME280;13075;55.682;37.564;2022-10-16T10:04:39;100871.34;;;12.65;100.00
25084;BME280;13075;55.682;37.564;2022-10-16T10:07:17;100862.66;;;12.63;100.00
25084;BME280;13075;55.682;37.564;2022-10-16T10:09:45;100864.78;;;12.68;100.00
25084;BME280;13075;55.682;37.564;2022-10-16T10:12:37;100865.63;;;12.68;100.00
25084;BME280;13075;55.682;37.564;2022-10-16T10:15:12;100860.84;;;12.78;100.00
25084;BME280;13075;55.682;37.564;2022-10-16T10:20:35;100855.09;;;12.67;100.00
25084;BME280;13075;55.682;37.564;2022-10-16T10:23:24;100856.50;;;12.77;100.00
25084;BME280;13075;55.682;37.564;2022-10-16T10:29:03;100849.19;;;12.86;100.00
25084;BME280;13075;55.682;37.564;2022-10-16T10:37:02;100856.22;;;12.87;100.00
25084;BME280;13075;55.682;37.564;2022-10-16T10:39:37;100864.16;;;12.80;100.00
25084;BME280;13075;55.682;37.564;2022-10-16T10:42:36;100858.50;;;12.75;100.00
25084;BME280;13075;55.682;37.564;2022-10-16T10:51:29;100857.88;;;12.88;100.00
25084;BME280;13075;55.682;37.564;2022-10-16T11:02:13;100843.59;;;12.73;100.00
25084;BME280;13075;55.682;37.564;2022-10-16T11:07:25;100847.13;;;12.73;100.00
25084;BME280;13075;55.682;37.564;2022-10-16T11:10:33;100849.41;;;12.62;100.00
25084;BME280;13075;55.682;37.564;2022-10-16T11:13:09;100843.84;;;12.63;100.00
25084;BME280;13075;55.682;37.564;2022-10-16T11:15:40;100847.53;;;12.62;100.00
25084;BME280;13075;55.682;37.564;2022-10-16T11:18:12;100844.22;;;12.60;100.00
25084;BME280;13075;55.682;37.564;2022-10-16T11:23:29;100838.13;;;12.66;100.00
25084;BME280;13075;55.682;37.564;2022-10-16T11:26:00;100833.97;;;12.64;100.00
25084;BME280;13075;55.682;37.564;2022-10-16T11:28:37;100840.16;;;12.64;100.00
25084;BME280;13075;55.682;37.564;2022-10-16T11:31:16;100832.47;;;12.61;100.00
25084;BME280;13075;55.682;37.564;2022-10-16T11:34:22;100832.28;;;12.63;100.00
25084;BME280;13075;55.682;37.564;2022-10-16T11:36:59;100829.22;;;12.66;100.00
25084;BME280;13075;55.682;37.564;2022-10-16T11:39:29;100830.44;;;12.63;100.00
25084;BME280;13075;55.682;37.564;2022-10-16T11:42:11;100828.31;;;12.59;100.00
25084;BME280;13075;55.682;37.564;2022-10-16T11:49:50;100829.59;;;12.63;100.00
25084;BME280;13075;55.682;37.564;2022-10-16T11:52:36;100825.78;;;12.57;100.00
25084;BME280;13075;55.682;37.564;2022-10-16T11:55:23;100823.28;;;12.56;100.00
25084;BME280;13075;55.682;37.564;2022-10-16T11:57:53;100821.91;;;12.60;100.00
25084;BME280;13075;55.682;37.564;2022-10-16T12:00:27;100826.91;;;12.63;100.00
25084;BME280;13075;55.682;37.564;2022-10-16T12:03:05;100828.09;;;12.60;100.00
25084;BME280;13075;55.682;37.564;2022-10-16T12:08:46;100824.13;;;12.56;100.00
25084;BME280;13075;55.682;37.564;2022-10-16T12:11:34;100826.63;;;12.58;100.00
25084;BME280;13075;55.682;37.564;2022-10-16T12:16:33;100833.38;;;12.54;100.00
25084;BME280;13075;55.682;37.564;2022-10-16T12:19:14;100826.03;;;12.47;100.00
25084;BME280;13075;55.682;37.564;2022-10-16T12:21:41;100827.03;;;12.46;100.00
25084;BME280;13075;55.682;37.564;2022-10-16T12:26:48;100807.09;;;12.49;100.00
25084;BME280;13075;55.682;37.564;2022-10-16T12:31:45;100802.06;;;12.46;100.00
25084;BME280;13075;55.682;37.564;2022-10-16T12:34:22;100811.78;;;12.47;100.00
25084;BME280;13075;55.682;37.564;2022-10-16T12:36:49;100806.13;;;12.42;100.00
25084;BME280;13075;55.682;37.564;2022-10-16T12:39:23;100803.44;;;12.42;100.00
25084;BME280;13075;55.682;37.564;2022-10-16T12:42:04;100803.78;;;12.39;100.00
25084;BME280;13075;55.682;37.564;2022-10-16T12:44:34;100806.03;;;12.35;100.00
25084;BME280;13075;55.682;37.564;2022-10-16T12:47:01;100801.84;;;12.33;100.00
25084;BME280;13075;55.682;37.564;2022-10-16T12:49:36;100805.72;;;12.30;100.00
25084;BME280;13075;55.682;37.564;2022-10-16T12:52:02;100804.69;;;12.31;100.00
25084;BME280;13075;55.682;37.564;2022-10-16T13:06:08;100797.44;;;12.17;100.00
25084;BME280;13075;55.682;37.564;2022-10-16T13:09:08;100800.13;;;12.17;100.00
25084;BME280;13075;55.682;37.564;2022-10-16T13:20:17;100795.19;;;12.06;100.00
25084;BME280;13075;55.682;37.564;2022-10-16T13:28:33;100796.41;;;11.96;100.00
25084;BME280;13075;55.682;37.564;2022-10-16T13:31:01;100807.88;;;11.90;100.00
25084;BME280;13075;55.682;37.564;2022-10-16T13:36:02;100809.06;;;11.87;100.00
25084;BME280;13075;55.682;37.564;2022-10-16T13:38:31;100797.19;;;11.81;100.00
25084;BME280;13075;55.682;37.564;2022-10-16T13:41:04;100800.78;;;11.74;100.00
25084;BME280;13075;55.682;37.564;2022-10-16T13:43:45;100801.78;;;11.73;100.00
25084;BME280;13075;55.682;37.564;2022-10-16T13:48:42;100795.97;;;11.61;100.00
25084;BME280;13075;55.682;37.564;2022-10-16T13:51:16;100806.00;;;11.59;100.00
25084;BME280;13075;55.682;37.564;2022-10-16T13:53:43;100794.63;;;11.57;100.00
25084;BME280;13075;55.682;37.564;2022-10-16T13:56:20;100789.78;;;11.53;100.00
25084;BME280;13075;55.682;37.564;2022-10-16T13:59:01;100797.38;;;11.41;100.00
25084;BME280;13075;55.682;37.564;2022-10-16T14:01:35;100794.88;;;11.40;100.00
25084;BME280;13075;55.682;37.564;2022-10-16T14:04:11;100784.31;;;11.38;100.00
25084;BME280;13075;55.682;37.564;2022-10-16T14:06:44;100788.03;;;11.37;100.00
25084;BME280;13075;55.682;37.564;2022-10-16T14:09:31;100800.59;;;11.37;100.00
25084;BME280;13075;55.682;37.564;2022-10-16T14:12:01;100798.09;;;11.35;100.00
25084;BME280;13075;55.682;37.564;2022-10-16T14:14:43;100794.91;;;11.32;100.00
25084;BME280;13075;55.682;37.564;2022-10-16T14:17:19;100799.97;;;11.26;100.00
25084;BME280;13075;55.682;37.564;2022-10-16T14:19:50;100800.31;;;11.23;100.00
25084;BME280;13075;55.682;37.564;2022-10-16T14:24:57;100791.44;;;11.15;100.00
25084;BME280;13075;55.682;37.564;2022-10-16T14:27:30;100804.53;;;11.10;100.00
25084;BME280;13075;55.682;37.564;2022-10-16T14:30:19;100803.56;;;11.03;100.00
25084;BME280;13075;55.682;37.564;2022-10-16T14:32:56;100801.59;;;10.97;100.00
25084;BME280;13075;55.682;37.564;2022-10-16T14:35:43;100810.09;;;10.92;100.00
25084;BME280;13075;55.682;37.564;2022-10-16T14:38:18;100804.28;;;10.89;100.00
25084;BME280;13075;55.682;37.564;2022-10-16T14:40:48;100814.47;;;10.85;100.00
25084;BME280;13075;55.682;37.564;2022-10-16T14:43:21;100804.13;;;10.82;100.00
25084;BME280;13075;55.682;37.564;2022-10-16T14:45:52;100807.31;;;10.78;100.00
25084;BME280;13075;55.682;37.564;2022-10-16T14:48:18;100810.31;;;10.75;100.00
25084;BME280;13075;55.682;37.564;2022-10-16T14:50:45;100811.16;;;10.67;100.00
25084;BME280;13075;55.682;37.564;2022-10-16T14:53:13;100813.84;;;10.67;100.00
25084;BME280;13075;55.682;37.564;2022-10-16T14:55:40;100808.81;;;10.64;100.00